Time;durP1;ratioP1;P1;durP2;ratioP2;P2;SDS_P1;SDS_P2;PMS_P1;PMS_P2;Temp;Humidity;BMP_temperature;BMP_pressure;BME280_temperature;BME280_humidity;BME280_pressure;Samples;Min_cycle;Max_cycle;Signal;HPM_P1;HPM_P2
2023/08/03 00:00:29;;;;;;;;;;;;;;;24.46;63.45;96442.61;617604;229;66957;-76
2023/08/03 00:02:57;;;;;;;;;;;;;;;24.45;63.42;96443.72;617661;229;62534;-76
2023/08/03 00:05:24;;;;;;;;;;;;;;;24.45;63.43;96432.19;617665;229;67141;-76
2023/08/03 00:07:52;;;;;;;;;;;;;;;24.45;63.47;96435.66;617605;229;67027;-76
2023/08/03 00:10:21;;;;;;;;;;;;;;;24.45;63.33;96443.72;617623;229;64651;-76
2023/08/03 00:12:48;;;;;;;;;;;;;;;24.46;63.48;96437.24;617582;229;67114;-76
2023/08/03 00:15:17;;;;;;;;;;;;;;;24.45;63.56;96438.35;617638;229;66543;-76
2023/08/03 00:17:45;;;;;;;;;;;;;;;24.45;63.55;96435.66;617649;229;64561;-76
2023/08/03 00:20:12;;;;;;;;;;;;;;;24.45;63.61;96432.98;617597;229;64804;-76
2023/08/03 00:22:40;;;;;;;;;;;;;;;24.45;63.53;96442.94;617623;229;65219;-72
2023/08/03 00:25:08;;;;;;;;;;;;;;;24.45;63.53;96442.94;617605;229;64548;-72
2023/08/03 00:27:35;;;;;;;;;;;;;;;24.46;63.52;96442.61;617648;229;68006;-72
2023/08/03 00:30:03;;;;;;;;;;;;;;;24.45;63.62;96443.72;617639;229;67080;-72
2023/08/03 00:32:30;;;;;;;;;;;;;;;24.45;63.57;96451.78;617601;229;64611;-72
2023/08/03 00:34:58;;;;;;;;;;;;;;;24.45;63.58;96448.31;617629;229;68016;-72
2023/08/03 00:37:25;;;;;;;;;;;;;;;24.45;63.61;96451.78;617633;229;64533;-72
2023/08/03 00:39:53;;;;;;;;;;;;;;;24.45;63.70;96451.78;617633;229;64547;-72
2023/08/03 00:42:20;;;;;;;;;;;;;;;24.44;63.76;96444.80;617693;229;66785;-72
2023/08/03 00:44:48;;;;;;;;;;;;;;;24.45;63.71;96445.62;617610;229;66670;-72
2023/08/03 00:47:15;;;;;;;;;;;;;;;24.44;63.67;96442.12;617632;229;64611;-72
2023/08/03 00:49:43;;;;;;;;;;;;;;;24.45;63.71;96449.09;617635;229;68054;-72
2023/08/03 00:52:10;;;;;;;;;;;;;;;24.45;63.62;96442.94;617647;229;66657;-72
2023/08/03 00:54:38;;;;;;;;;;;;;;;24.46;63.66;96452.56;617722;229;65719;-71
2023/08/03 00:57:05;;;;;;;;;;;;;;;24.45;63.72;96443.72;617678;229;66825;-72
2023/08/03 00:59:33;;;;;;;;;;;;;;;24.45;63.76;96450.99;617642;229;65476;-72
2023/08/03 01:02:01;;;;;;;;;;;;;;;24.45;63.79;96453.68;617635;229;62675;-72
2023/08/03 01:04:29;;;;;;;;;;;;;;;24.44;63.79;96455.55;617670;229;66995;-72
2023/08/03 01:06:58;;;;;;;;;;;;;;;24.45;63.79;96442.94;617686;227;67708;-72
2023/08/03 01:09:25;;;;;;;;;;;;;;;24.44;63.76;96446.70;617654;227;63422;-72
2023/08/03 01:11:53;;;;;;;;;;;;;;;24.45;63.62;96448.31;617476;229;64881;-71
2023/08/03 01:14:22;;;;;;;;;;;;;;;24.46;63.61;96445.30;611868;230;70718;-72
2023/08/03 01:16:51;;;;;;;;;;;;;;;24.46;63.75;96449.87;617451;230;62079;-72
2023/08/03 01:19:19;;;;;;;;;;;;;;;24.46;63.84;96455.25;617432;230;64938;-72
2023/08/03 01:21:47;;;;;;;;;;;;;;;24.45;63.83;96451.78;617497;230;64831;-72
2023/08/03 01:24:14;;;;;;;;;;;;;;;24.45;63.84;96449.09;617466;230;62845;-72
2023/08/03 01:26:44;;;;;;;;;;;;;;;24.44;63.83;96444.80;617409;230;64874;-72
2023/08/03 01:29:12;;;;;;;;;;;;;;;24.44;63.83;96442.12;617467;230;67627;-72
2023/08/03 01:31:40;;;;;;;;;;;;;;;24.44;63.82;96442.12;617444;230;62451;-72
2023/08/03 01:34:08;;;;;;;;;;;;;;;24.44;63.83;96442.12;617471;230;67221;-77
2023/08/03 01:36:35;;;;;;;;;;;;;;;24.44;63.87;96436.75;617435;230;65125;-76
2023/08/03 01:39:07;;;;;;;;;;;;;;;24.44;63.90;96439.43;617418;230;64711;-76
2023/08/03 01:41:36;;;;;;;;;;;;;;;24.44;63.91;96444.80;617327;230;67223;-75
2023/08/03 01:44:08;;;;;;;;;;;;;;;24.43;63.97;96443.20;617447;230;66677;-75
2023/08/03 01:46:35;;;;;;;;;;;;;;;24.44;63.94;96449.39;616652;230;65596;-75
2023/08/03 01:49:03;;;;;;;;;;;;;;;24.42;63.92;96444.31;617449;230;67125;-75
2023/08/03 01:51:30;;;;;;;;;;;;;;;24.43;63.96;96448.57;617411;230;67669;-75
2023/08/03 01:53:58;;;;;;;;;;;;;;;24.43;63.93;96456.63;617439;230;64646;-71
2023/08/03 01:56:26;;;;;;;;;;;;;;;24.42;63.94;96449.68;617452;230;64001;-71
2023/08/03 01:58:53;;;;;;;;;;;;;;;24.44;63.90;96454.76;617444;230;66727;-76
2023/08/03 02:01:21;;;;;;;;;;;;;;;24.43;63.87;96456.63;617475;230;64537;-76
2023/08/03 02:03:48;;;;;;;;;;;;;;;24.43;63.83;96456.63;617430;230;67293;-71
2023/08/03 02:06:16;;;;;;;;;;;;;;;24.44;63.87;96454.76;617424;230;67257;-71
2023/08/03 02:08:43;;;;;;;;;;;;;;;24.43;63.82;96451.25;617440;230;64650;-71
2023/08/03 02:11:11;;;;;;;;;;;;;;;24.43;63.86;96451.25;617416;230;67090;-71
2023/08/03 02:13:38;;;;;;;;;;;;;;;24.43;63.90;96453.16;617649;229;66964;-71
2023/08/03 02:16:11;;;;;;;;;;;;;;;24.44;63.90;96446.70;617630;227;64743;-71
2023/08/03 02:18:35;;;;;;;;;;;;;;;24.43;63.93;96451.25;618212;227;67297;-71
2023/08/03 02:21:03;;;;;;;;;;;;;;;24.43;63.91;96453.94;623722;227;66895;-71
2023/08/03 02:23:31;;;;;;;;;;;;;;;24.43;63.85;96448.57;624733;227;64602;-71
2023/08/03 02:25:59;;;;;;;;;;;;;;;24.44;63.92;96446.70;624734;227;68086;-71
2023/08/03 02:28:27;;;;;;;;;;;;;;;24.43;63.89;96456.63;624720;227;64998;-71
2023/08/03 02:30:54;;;;;;;;;;;;;;;24.42;63.93;96441.63;622183;224;65830;-71
2023/08/03 02:33:22;;;;;;;;;;;;;;;24.43;63.93;96445.89;623996;224;67155;-71
2023/08/03 02:35:49;;;;;;;;;;;;;;;24.43;63.93;96447.78;624634;227;64798;-71
2023/08/03 02:38:17;;;;;;;;;;;;;;;24.43;63.83;96453.16;624788;227;64548;-71
2023/08/03 02:40:45;;;;;;;;;;;;;;;24.43;63.82;96448.57;624735;227;67196;-71
2023/08/03 02:43:13;;;;;;;;;;;;;;;24.43;63.92;96458.52;624754;227;64551;-71
2023/08/03 02:45:41;;;;;;;;;;;;;;;24.43;63.91;96461.21;624720;227;62062;-71
2023/08/03 02:48:09;;;;;;;;;;;;;;;24.43;63.89;96453.94;624739;227;67345;-71
2023/08/03 02:50:37;;;;;;;;;;;;;;;24.42;63.94;96457.73;624740;227;64712;-71
2023/08/03 02:53:05;;;;;;;;;;;;;;;24.43;63.97;96455.84;624739;227;62656;-71
2023/08/03 02:55:33;;;;;;;;;;;;;;;24.42;64.02;96457.73;624714;227;67566;-71
2023/08/03 02:58:00;;;;;;;;;;;;;;;24.41;63.94;96464.19;624736;227;67360;-71
2023/08/03 03:00:28;;;;;;;;;;;;;;;24.42;63.91;96463.11;624669;227;65566;-71
2023/08/03 03:02:56;;;;;;;;;;;;;;;24.42;63.92;96460.42;624739;227;64923;-71
2023/08/03 03:05:24;;;;;;;;;;;;;;;24.42;63.91;96463.11;624771;227;67279;-71
2023/08/03 03:07:51;;;;;;;;;;;;;;;24.42;63.91;96470.34;624746;227;62475;-71
2023/08/03 03:10:19;;;;;;;;;;;;;;;24.42;63.85;96463.11;624756;227;67031;-71
2023/08/03 03:12:46;;;;;;;;;;;;;;;24.42;63.88;96462.30;624631;226;66806;-71
2023/08/03 03:15:14;;;;;;;;;;;;;;;24.43;63.91;96471.95;624708;227;62395;-71
2023/08/03 03:17:42;;;;;;;;;;;;;;;24.42;63.94;96470.34;624783;224;67361;-71
2023/08/03 03:20:11;;;;;;;;;;;;;;;24.42;63.92;96473.03;624695;227;67414;-71
2023/08/03 03:22:38;;;;;;;;;;;;;;;24.43;63.91;96469.27;624718;227;64700;-71
2023/08/03 03:25:06;;;;;;;;;;;;;;;24.41;63.94;96472.25;624721;227;67333;-71
2023/08/03 03:27:33;;;;;;;;;;;;;;;24.41;63.88;96469.56;624725;227;67086;-75
2023/08/03 03:30:01;;;;;;;;;;;;;;;24.42;63.90;96470.34;624794;227;64605;-75
2023/08/03 03:32:30;;;;;;;;;;;;;;;24.42;63.85;96475.72;624762;224;64940;-75
2023/08/03 03:34:57;;;;;;;;;;;;;;;24.42;63.88;96470.34;624721;227;66888;-75
2023/08/03 03:37:25;;;;;;;;;;;;;;;24.41;63.87;96466.88;624733;227;63429;-75
2023/08/03 03:39:52;;;;;;;;;;;;;;;24.41;63.90;96469.56;624673;227;65009;-75
2023/08/03 03:42:22;;;;;;;;;;;;;;;24.41;63.92;96477.62;624795;227;44847;-74
2023/08/03 03:44:49;;;;;;;;;;;;;;;24.41;63.93;96482.98;624736;227;64713;-75
2023/08/03 03:47:17;;;;;;;;;;;;;;;24.41;63.96;96472.25;624713;227;64800;-75
2023/08/03 03:49:46;;;;;;;;;;;;;;;24.41;63.88;96471.45;624732;227;66882;-75
2023/08/03 03:52:14;;;;;;;;;;;;;;;24.41;64.03;96479.52;624706;227;64582;-76
2023/08/03 03:54:42;;;;;;;;;;;;;;;24.40;63.84;96483.31;624743;227;67571;-75
2023/08/03 03:57:09;;;;;;;;;;;;;;;24.41;63.83;96485.67;624820;227;66711;-75
2023/08/03 03:59:37;;;;;;;;;;;;;;;24.41;63.80;96485.67;624730;227;64511;-75
2023/08/03 04:02:05;;;;;;;;;;;;;;;24.41;63.79;96482.20;624714;227;64853;-75
2023/08/03 04:04:32;;;;;;;;;;;;;;;24.40;63.76;96489.47;624710;227;67178;-75
2023/08/03 04:07:00;;;;;;;;;;;;;;;24.41;63.71;96482.98;624681;227;65039;-76
2023/08/03 04:09:29;;;;;;;;;;;;;;;24.40;63.70;96492.16;624773;227;67653;-70
2023/08/03 04:11:57;;;;;;;;;;;;;;;24.41;64.07;96488.36;624681;226;64688;-70
2023/08/03 04:14:24;;;;;;;;;;;;;;;24.41;63.78;96491.05;624725;227;62452;-71
2023/08/03 04:16:52;;;;;;;;;;;;;;;24.40;64.11;96486.00;624737;227;64842;-71
2023/08/03 04:19:20;;;;;;;;;;;;;;;24.40;63.98;96494.84;624712;227;66888;-71
2023/08/03 04:21:47;;;;;;;;;;;;;;;24.40;63.69;96491.38;624770;227;64605;-71
2023/08/03 04:24:15;;;;;;;;;;;;;;;24.40;63.76;96494.05;624739;227;64546;-71
2023/08/03 04:26:43;;;;;;;;;;;;;;;24.40;63.68;96499.42;624735;227;67294;-71
2023/08/03 04:29:13;;;;;;;;;;;;;;;24.40;63.79;96494.84;624526;227;46472;-72
2023/08/03 04:31:40;;;;;;;;;;;;;;;24.40;63.95;96494.05;624760;227;65094;-71
2023/08/03 04:34:08;;;;;;;;;;;;;;;24.38;63.74;96495.14;624750;227;67303;-72
2023/08/03 04:36:36;;;;;;;;;;;;;;;24.40;63.71;96499.42;624760;227;64633;-72
2023/08/03 04:39:03;;;;;;;;;;;;;;;24.40;64.31;96499.42;624747;227;67894;-72
2023/08/03 04:41:31;;;;;;;;;;;;;;;24.39;63.95;96498.64;624696;227;64733;-72
2023/08/03 04:43:58;;;;;;;;;;;;;;;24.39;63.98;96506.70;624752;227;61910;-72
2023/08/03 04:46:28;;;;;;;;;;;;;;;24.40;63.81;96494.05;624842;227;45692;-72
2023/08/03 04:48:56;;;;;;;;;;;;;;;24.39;64.52;96501.33;624779;227;67173;-75
2023/08/03 04:51:23;;;;;;;;;;;;;;;24.39;63.78;96504.01;624753;227;64733;-76
2023/08/03 04:53:51;;;;;;;;;;;;;;;24.38;63.62;96503.19;624756;227;66964;-75
2023/08/03 04:56:19;;;;;;;;;;;;;;;24.38;63.83;96505.09;624785;227;67133;-75
2023/08/03 04:58:47;;;;;;;;;;;;;;;24.37;63.52;96504.30;624819;227;64648;-76
2023/08/03 05:01:15;;;;;;;;;;;;;;;24.39;64.63;96501.33;624790;227;66714;-76
2023/08/03 05:03:42;;;;;;;;;;;;;;;24.39;64.95;96506.70;624792;227;67473;-76
2023/08/03 05:06:09;;;;;;;;;;;;;;;24.38;64.98;96502.41;624743;227;64459;-75
2023/08/03 05:08:37;;;;;;;;;;;;;;;24.37;63.90;96501.61;624742;227;66980;-76
2023/08/03 05:11:04;;;;;;;;;;;;;;;24.38;63.66;96505.09;624673;227;65702;-76
2023/08/03 05:13:34;;;;;;;;;;;;;;;24.37;63.97;96503.52;624575;226;41975;-68
2023/08/03 05:16:01;;;;;;;;;;;;;;;24.38;63.58;96499.72;624475;227;67099;-68
2023/08/03 05:18:29;;;;;;;;;;;;;;;24.37;63.65;96504.30;624712;227;67160;-68
2023/08/03 05:20:56;;;;;;;;;;;;;;;24.38;63.91;96499.72;624762;227;64381;-68
2023/08/03 05:23:24;;;;;;;;;;;;;;;24.38;63.65;96505.09;624756;227;67039;-68
2023/08/03 05:25:54;;;;;;;;;;;;;;;24.38;63.60;96507.77;624763;227;66838;-67
2023/08/03 05:28:22;;;;;;;;;;;;;;;24.38;63.50;96513.14;624728;227;62398;-67
2023/08/03 05:30:50;;;;;;;;;;;;;;;24.38;63.52;96515.83;624744;227;65088;-67
2023/08/03 05:33:17;;;;;;;;;;;;;;;24.38;63.54;96515.83;624729;227;64764;-67
2023/08/03 05:35:46;;;;;;;;;;;;;;;24.38;63.62;96519.30;624768;227;62665;-67
2023/08/03 05:38:15;;;;;;;;;;;;;;;24.38;63.55;96513.94;624809;227;66735;-68
2023/08/03 05:40:44;;;;;;;;;;;;;;;24.38;63.57;96513.94;624454;227;49068;-67
2023/08/03 05:43:13;;;;;;;;;;;;;;;24.38;63.55;96515.83;624700;227;64605;-67
2023/08/03 05:45:42;;;;;;;;;;;;;;;24.38;63.67;96515.83;624757;224;65294;-69
2023/08/03 05:48:14;;;;;;;;;;;;;;;24.38;63.58;96513.14;624722;227;67021;-67
2023/08/03 05:50:42;;;;;;;;;;;;;;;24.38;63.57;96510.46;624751;227;62698;-67
2023/08/03 05:53:10;;;;;;;;;;;;;;;24.39;63.57;96514.75;624769;227;65084;-69
2023/08/03 05:55:38;;;;;;;;;;;;;;;24.38;63.57;96503.19;624740;227;67041;-69
2023/08/03 05:58:07;;;;;;;;;;;;;;;24.38;63.61;96500.51;624754;224;64713;-69
2023/08/03 06:00:35;;;;;;;;;;;;;;;24.38;63.61;96505.09;624804;227;66739;-66
2023/08/03 06:03:03;;;;;;;;;;;;;;;24.39;63.63;96501.33;624739;227;66849;-67
2023/08/03 06:05:38;;;;;;;;;;;;;;;24.38;63.65;96497.82;624821;227;65113;-68
2023/08/03 06:08:07;;;;;;;;;;;;;;;24.38;63.65;96500.51;623214;227;66720;-67
2023/08/03 06:10:35;;;;;;;;;;;;;;;24.39;63.69;96506.70;624215;227;66714;-67
2023/08/03 06:13:03;;;;;;;;;;;;;;;24.39;63.67;96498.64;624567;226;62246;-68
2023/08/03 06:15:31;;;;;;;;;;;;;;;24.39;63.69;96501.33;623516;227;64758;-67
2023/08/03 06:18:00;;;;;;;;;;;;;;;24.38;63.67;96503.19;623334;227;66822;-66
2023/08/03 06:20:31;;;;;;;;;;;;;;;24.39;63.90;96498.64;623099;227;62721;-66
2023/08/03 06:22:57;;;;;;;;;;;;;;;24.39;63.63;96504.01;622977;227;64732;-67
2023/08/03 06:25:24;;;;;;;;;;;;;;;24.41;63.62;96503.69;623123;227;64227;-67
2023/08/03 06:27:52;;;;;;;;;;;;;;;24.43;63.62;96498.81;623278;227;62761;-65
2023/08/03 06:30:20;;;;;;;;;;;;;;;24.44;63.79;96495.83;623280;227;64574;-73
2023/08/03 06:32:47;;;;;;;;;;;;;;;24.43;63.67;96502.28;623184;227;67097;-72
2023/08/03 06:35:28;;;;;;;;;;;;;;;24.44;63.59;96503.10;623230;227;64602;-73
2023/08/03 06:37:55;;;;;;;;;;;;;;;24.44;63.60;96501.20;622975;227;64400;-72
2023/08/03 06:40:23;;;;;;;;;;;;;;;24.45;63.56;96507.39;623207;227;64563;-72
2023/08/03 06:42:50;;;;;;;;;;;;;;;24.45;63.51;96502.02;623188;227;62371;-74
2023/08/03 06:45:18;;;;;;;;;;;;;;;24.45;63.45;96508.19;623240;227;66821;-72
2023/08/03 06:47:45;;;;;;;;;;;;;;;24.47;63.43;96507.86;622338;227;66529;-75
2023/08/03 06:50:13;;;;;;;;;;;;;;;24.46;63.44;96499.02;622198;228;64689;-73
2023/08/03 06:52:40;;;;;;;;;;;;;;;24.47;63.38;96505.99;622168;228;66669;-73
2023/08/03 06:55:08;;;;;;;;;;;;;;;24.48;63.39;96501.41;622246;228;64412;-72
2023/08/03 06:57:36;;;;;;;;;;;;;;;24.49;63.47;96500.30;622199;228;64546;-72
2023/08/03 07:00:03;;;;;;;;;;;;;;;24.49;63.55;96509.14;622209;228;67249;-72
2023/08/03 07:02:31;;;;;;;;;;;;;;;24.49;63.55;96508.36;622263;228;66794;-72
2023/08/03 07:04:58;;;;;;;;;;;;;;;24.49;63.58;96503.77;622165;228;62403;-72
2023/08/03 07:07:27;;;;;;;;;;;;;;;24.50;63.55;96502.69;622229;228;64529;-67
2023/08/03 07:09:55;;;;;;;;;;;;;;;24.49;63.59;96506.45;622301;228;66789;-70
2023/08/03 07:12:23;;;;;;;;;;;;;;;24.50;63.55;96510.75;622126;227;64938;-73
2023/08/03 07:14:50;;;;;;;;;;;;;;;24.51;63.60;96506.95;622178;228;66948;-66
2023/08/03 07:17:18;;;;;;;;;;;;;;;24.50;63.29;96508.06;622241;228;66815;-64
2023/08/03 07:19:45;;;;;;;;;;;;;;;24.52;63.19;96503.16;622180;228;64548;-63
2023/08/03 07:22:12;;;;;;;;;;;;;;;24.53;63.10;96493.23;622219;228;64629;-65
2023/08/03 07:24:40;;;;;;;;;;;;;;;24.53;63.16;96493.23;622261;228;64684;-65
2023/08/03 07:27:07;;;;;;;;;;;;;;;24.53;63.12;96504.77;622155;228;64672;-65
2023/08/03 07:29:35;;;;;;;;;;;;;;;24.54;63.09;96502.86;622252;228;66862;-69
2023/08/03 07:32:02;;;;;;;;;;;;;;;24.55;63.08;96497.20;622188;228;66888;-71
2023/08/03 07:34:30;;;;;;;;;;;;;;;24.55;63.06;96494.52;622204;228;64790;-73
2023/08/03 07:36:58;;;;;;;;;;;;;;;24.55;63.00;96497.20;622253;228;66921;-73
2023/08/03 07:39:25;;;;;;;;;;;;;;;24.56;62.98;96500.67;622167;228;66435;-73
2023/08/03 07:41:53;;;;;;;;;;;;;;;24.55;62.98;96497.20;622220;228;64562;-73
2023/08/03 07:44:23;;;;;;;;;;;;;;;24.55;63.05;96486.45;622245;228;66893;-75
2023/08/03 07:46:51;;;;;;;;;;;;;;;24.55;63.05;96489.14;622112;228;67160;-73
2023/08/03 07:49:19;;;;;;;;;;;;;;;24.56;63.04;96487.24;622268;228;64471;-73
2023/08/03 07:51:52;;;;;;;;;;;;;;;24.56;63.03;96485.34;622210;228;66933;-73
2023/08/03 07:54:17;;;;;;;;;;;;;;;24.56;63.05;96487.24;621919;227;66954;-73
2023/08/03 07:56:44;;;;;;;;;;;;;;;24.56;63.10;96485.34;622211;228;64735;-75
2023/08/03 07:59:12;;;;;;;;;;;;;;;24.56;63.09;96485.34;622250;228;66876;-74
2023/08/03 08:01:40;;;;;;;;;;;;;;;24.57;63.10;96486.92;622220;228;67404;-73
2023/08/03 08:04:07;;;;;;;;;;;;;;;24.57;63.13;96484.23;622283;228;62658;-73
2023/08/03 08:06:35;;;;;;;;;;;;;;;24.57;63.13;96484.23;622162;228;66736;-73
2023/08/03 08:09:02;;;;;;;;;;;;;;;24.59;63.12;96481.25;622140;228;66654;-73
2023/08/03 08:11:30;;;;;;;;;;;;;;;24.58;63.11;96485.02;622025;227;64727;-72
2023/08/03 08:13:59;;;;;;;;;;;;;;;24.59;63.08;96484.73;622537;226;65887;-73
2023/08/03 08:16:27;;;;;;;;;;;;;;;24.58;63.10;96480.47;626143;226;64730;-73
2023/08/03 08:18:54;;;;;;;;;;;;;;;24.59;63.10;96479.35;625922;226;63404;-72
2023/08/03 08:21:21;;;;;;;;;;;;;;;24.60;63.10;96480.14;626108;226;66767;-73
2023/08/03 08:23:49;;;;;;;;;;;;;;;24.61;63.14;96480.93;626041;226;66847;-73
2023/08/03 08:26:17;;;;;;;;;;;;;;;24.61;63.10;96483.61;626085;226;64916;-73
2023/08/03 08:28:46;;;;;;;;;;;;;;;24.62;63.08;96483.32;626153;226;66949;-65
2023/08/03 08:31:14;;;;;;;;;;;;;;;24.62;63.07;96480.63;626107;226;66923;-74
2023/08/03 08:33:43;;;;;;;;;;;;;;;24.61;63.09;96481.75;626042;226;64728;-76
2023/08/03 08:36:10;;;;;;;;;;;;;;;24.63;63.06;96486.80;625829;226;66782;-75
2023/08/03 08:38:38;;;;;;;;;;;;;;;24.62;63.04;96490.59;626078;226;66657;-74
2023/08/03 08:41:05;;;;;;;;;;;;;;;24.62;62.98;96483.32;626074;226;62534;-74
2023/08/03 08:43:33;;;;;;;;;;;;;;;24.62;62.95;96480.63;626049;226;66756;-75
2023/08/03 08:46:00;;;;;;;;;;;;;;;24.62;62.92;96477.95;626021;226;66633;-75
2023/08/03 08:48:28;;;;;;;;;;;;;;;24.63;62.90;96479.52;626099;226;64550;-74
2023/08/03 08:51:00;;;;;;;;;;;;;;;24.63;62.88;96473.36;626028;226;64568;-74
2023/08/03 08:53:28;;;;;;;;;;;;;;;24.63;62.82;96476.05;626193;226;66127;-74
2023/08/03 08:55:55;;;;;;;;;;;;;;;24.63;62.80;96465.30;626085;226;64906;-72
2023/08/03 08:58:24;;;;;;;;;;;;;;;24.63;62.81;96470.67;626037;226;66521;-72
2023/08/03 09:00:56;;;;;;;;;;;;;;;24.63;62.82;96468.78;626021;226;66491;-72
2023/08/03 09:03:23;;;;;;;;;;;;;;;24.64;62.82;96466.91;625782;226;64593;-73
2023/08/03 09:06:00;;;;;;;;;;;;;;;24.65;62.79;96468.48;626029;226;66550;-74
2023/08/03 09:08:28;;;;;;;;;;;;;;;24.64;62.72;96456.16;626126;226;64244;-73
2023/08/03 09:10:57;;;;;;;;;;;;;;;24.64;62.70;96472.28;626060;226;64531;-72
2023/08/03 09:13:37;;;;;;;;;;;;;;;24.64;62.66;96462.32;621880;226;66525;-74
2023/08/03 09:16:05;;;;;;;;;;;;;;;24.65;62.63;96468.48;621526;228;66603;-74
2023/08/03 09:18:33;;;;;;;;;;;;;;;24.65;62.63;96465.80;621566;228;62435;-72
2023/08/03 09:21:10;;;;;;;;;;;;;;;24.65;62.61;96469.27;621395;228;66630;-72
2023/08/03 09:23:38;;;;;;;;;;;;;;;24.66;62.61;96467.38;621548;228;66805;-73
2023/08/03 09:26:05;;;;;;;;;;;;;;;24.64;62.57;96465.01;621455;228;64661;-75
2023/08/03 09:28:38;;;;;;;;;;;;;;;24.64;62.47;96458.84;621526;228;68005;-65
2023/08/03 09:31:06;;;;;;;;;;;;;;;24.66;62.39;96459.31;621542;228;67965;-66
2023/08/03 09:33:34;;;;;;;;;;;;;;;24.66;62.35;96462.00;621500;228;64698;-66
2023/08/03 09:36:02;;;;;;;;;;;;;;;24.66;62.31;96462.78;621502;228;66770;-67
2023/08/03 09:38:30;;;;;;;;;;;;;;;24.68;62.26;96462.48;621546;228;66504;-67
2023/08/03 09:40:58;;;;;;;;;;;;;;;24.68;62.18;96457.11;621460;228;62686;-67
2023/08/03 09:43:26;;;;;;;;;;;;;;;24.69;62.07;96454.13;621537;228;66957;-66
2023/08/03 09:45:54;;;;;;;;;;;;;;;24.67;61.97;96453.64;621531;228;66623;-64
2023/08/03 09:48:22;;;;;;;;;;;;;;;24.69;61.87;96445.26;621496;228;64714;-64
2023/08/03 09:50:54;;;;;;;;;;;;;;;24.69;61.66;96447.94;621477;228;64796;-68
2023/08/03 09:53:23;;;;;;;;;;;;;;;24.70;61.57;96446.86;621525;228;66804;-67
2023/08/03 09:55:58;;;;;;;;;;;;;;;24.69;61.59;96440.70;621483;228;64999;-67
2023/08/03 09:58:23;;;;;;;;;;;;;;;24.70;61.52;96444.96;621367;228;66951;-67
2023/08/03 10:00:51;;;;;;;;;;;;;;;24.69;61.47;96438.02;621490;228;66889;-66
2023/08/03 10:03:18;;;;;;;;;;;;;;;24.70;61.29;96442.27;621467;228;64348;-66
2023/08/03 10:05:59;;;;;;;;;;;;;;;24.71;61.18;96437.69;621495;228;66914;-68
2023/08/03 10:08:34;;;;;;;;;;;;;;;24.73;61.13;96432.80;621419;228;66815;-67
2023/08/03 10:11:05;;;;;;;;;;;;;;;24.72;61.04;96432.02;621285;228;64711;-75
2023/08/03 10:13:33;;;;;;;;;;;;;;;24.73;60.98;96427.43;621440;227;67032;-78
2023/08/03 10:16:02;;;;;;;;;;;;;;;24.73;60.91;96428.22;621447;228;67151;-77
2023/08/03 10:18:31;;;;;;;;;;;;;;;24.74;60.89;96429.00;621333;228;62440;-77
2023/08/03 10:20:59;;;;;;;;;;;;;;;24.74;60.81;96426.31;621492;228;67230;-75
2023/08/03 10:23:27;;;;;;;;;;;;;;;24.74;60.71;96416.36;621422;228;67855;-74
2023/08/03 10:26:01;;;;;;;;;;;;;;;24.75;60.65;96409.90;621451;227;62467;-76
2023/08/03 10:28:30;;;;;;;;;;;;;;;24.76;60.61;96410.69;622394;228;67380;-76
2023/08/03 10:31:14;;;;;;;;;;;;;;;24.76;60.57;96408.78;622295;228;66819;-75
2023/08/03 10:33:47;;;;;;;;;;;;;;;24.77;60.51;96401.51;622446;228;62489;-74
2023/08/03 10:36:33;;;;;;;;;;;;;;;24.76;60.53;96394.56;622393;228;64634;-73
2023/08/03 10:39:02;;;;;;;;;;;;;;;24.78;60.55;96408.48;622282;228;66911;-73
2023/08/03 10:41:36;;;;;;;;;;;;;;;24.77;60.57;96399.64;622375;228;64463;-75
2023/08/03 10:44:13;;;;;;;;;;;;;;;24.78;60.60;96408.48;622181;228;65030;-73
2023/08/03 10:46:38;;;;;;;;;;;;;;;24.78;60.53;96400.43;622104;228;66706;-73
2023/08/03 10:49:23;;;;;;;;;;;;;;;24.79;60.47;96399.31;622389;228;64352;-75
2023/08/03 10:51:52;;;;;;;;;;;;;;;24.78;60.38;96397.73;622424;228;64879;-77
2023/08/03 10:54:24;;;;;;;;;;;;;;;24.78;60.31;96403.90;622451;228;64866;-76
2023/08/03 10:57:07;;;;;;;;;;;;;;;24.78;60.17;96397.73;622176;228;65309;-74
2023/08/03 10:59:45;;;;;;;;;;;;;;;24.78;60.12;96398.52;622397;228;67411;-75
2023/08/03 11:02:30;;;;;;;;;;;;;;;24.79;60.07;96399.31;622403;228;64807;-69
2023/08/03 11:04:58;;;;;;;;;;;;;;;24.80;60.34;96396.33;622278;228;62617;-70
2023/08/03 11:07:33;;;;;;;;;;;;;;;24.79;60.18;96396.63;622350;228;67222;-70
2023/08/03 11:10:02;;;;;;;;;;;;;;;24.79;60.18;96399.31;622379;228;67165;-72
2023/08/03 11:12:29;;;;;;;;;;;;;;;24.79;60.35;96396.63;621913;228;64658;-70
2023/08/03 11:14:58;;;;;;;;;;;;;;;24.79;60.18;96391.25;621435;228;66811;-71
2023/08/03 11:17:27;;;;;;;;;;;;;;;24.78;60.20;96390.47;621546;228;64845;-71
2023/08/03 11:19:55;;;;;;;;;;;;;;;24.79;60.23;96383.98;621542;228;62428;-70
2023/08/03 11:22:23;;;;;;;;;;;;;;;24.79;60.29;96383.98;621574;228;65092;-71
2023/08/03 11:24:52;;;;;;;;;;;;;;;24.78;60.36;96379.72;621548;228;66654;-69
2023/08/03 11:27:19;;;;;;;;;;;;;;;24.78;60.36;96385.09;621523;228;63345;-70
2023/08/03 11:29:47;;;;;;;;;;;;;;;24.79;60.41;96378.60;621499;228;64845;-70
2023/08/03 11:32:28;;;;;;;;;;;;;;;24.79;60.42;96388.56;620418;225;67219;-70
2023/08/03 11:35:00;;;;;;;;;;;;;;;24.79;60.44;96377.81;621568;225;65785;-69
2023/08/03 11:37:29;;;;;;;;;;;;;;;24.79;60.45;96375.13;619673;225;65043;-70
2023/08/03 11:39:56;;;;;;;;;;;;;;;24.79;60.47;96364.38;617377;230;67037;-72
2023/08/03 11:42:24;;;;;;;;;;;;;;;24.81;61.33;96370.24;617323;230;62540;-70
2023/08/03 11:44:51;;;;;;;;;;;;;;;24.83;60.73;96372.60;617350;230;66916;-71
2023/08/03 11:47:19;;;;;;;;;;;;;;;24.83;60.52;96370.73;617340;230;66895;-71
2023/08/03 11:49:51;;;;;;;;;;;;;;;24.85;60.47;96368.50;617381;230;64560;-72
2023/08/03 11:52:19;;;;;;;;;;;;;;;24.86;60.25;96372.80;617353;230;66829;-72
2023/08/03 11:54:48;;;;;;;;;;;;;;;24.87;60.12;96368.98;617352;230;67060;-72
2023/08/03 12:00:02;;;;;;;;;;;;;;;24.88;60.00;96362.53;617331;230;64888;-70
2023/08/03 12:02:39;;;;;;;;;;;;;;;24.88;59.92;96365.22;619166;225;48555;-71
2023/08/03 12:05:07;;;;;;;;;;;;;;;24.91;59.99;96369.97;622564;228;64307;-73
2023/08/03 12:07:35;;;;;;;;;;;;;;;24.89;60.11;96372.17;622504;228;67220;-75
2023/08/03 12:10:04;;;;;;;;;;;;;;;24.88;60.00;96362.53;622538;228;64773;-74
2023/08/03 12:12:31;;;;;;;;;;;;;;;24.88;60.28;96365.22;621480;227;63564;-72
2023/08/03 12:14:59;;;;;;;;;;;;;;;24.88;60.22;96367.91;622228;228;67044;-74
2023/08/03 12:17:27;;;;;;;;;;;;;;;24.88;60.21;96359.84;622258;228;64962;-74
2023/08/03 12:19:54;;;;;;;;;;;;;;;24.88;60.23;96354.47;622594;228;64620;-73
2023/08/03 12:22:21;;;;;;;;;;;;;;;24.88;60.18;96351.78;622528;228;64381;-73
2023/08/03 12:24:49;;;;;;;;;;;;;;;24.88;60.19;96354.47;622366;228;67692;-73
2023/08/03 12:27:16;;;;;;;;;;;;;;;24.88;60.18;96346.41;622513;228;64836;-72
2023/08/03 12:29:44;;;;;;;;;;;;;;;24.89;60.19;96352.56;622597;228;67035;-79
2023/08/03 12:32:12;;;;;;;;;;;;;;;24.88;60.25;96349.09;622540;228;66921;-73
2023/08/03 12:34:39;;;;;;;;;;;;;;;24.89;60.26;96352.56;622571;228;64530;-74
2023/08/03 12:37:09;;;;;;;;;;;;;;;24.89;60.23;96355.25;622278;227;48176;-68
2023/08/03 12:39:40;;;;;;;;;;;;;;;24.89;60.29;96345.29;622476;228;66622;-71
2023/08/03 12:42:11;;;;;;;;;;;;;;;24.90;60.34;96348.77;622580;227;64477;-64
2023/08/03 12:44:36;;;;;;;;;;;;;;;24.91;60.32;96348.47;622303;227;66947;-76
2023/08/03 12:47:03;;;;;;;;;;;;;;;24.91;60.38;96345.77;622474;228;67150;-76
2023/08/03 12:49:35;;;;;;;;;;;;;;;24.91;60.38;96343.09;622623;228;64628;-66
2023/08/03 12:52:00;;;;;;;;;;;;;;;24.91;60.39;96344.96;622471;227;64719;-66
2023/08/03 12:54:27;;;;;;;;;;;;;;;24.91;60.42;96353.84;622616;228;66998;-66
2023/08/03 12:56:54;;;;;;;;;;;;;;;24.90;60.48;96346.86;622583;228;64766;-66